Back to Top

Language: 

My Weather Underground Personal Weather Station Historical Data with Graphs...

Delerius Weather Station Historical Data
Daily Summary for May 24, 2017 Units:  English    Metric   Both
« Previous Day
Next Day »
Daily Weekly Monthly Yearly Custom
  High: Low: Average:
Temperature: 75.7 °F 56.8 °F 66.1 °F
Dew Point: 61.2 °F 51.4 °F 57.5 °F
Humidity: 89 % 58 % 75 %
Wind Speed: 11.0 mph 0.0 mph 6.1 mph
Wind Gust: 21.0 mph - -
Wind:- - WNW
Pressure: 30.28 in 30.20 in -
Precipitation: 0.00 in    
Historical Graphs
 
 
Tabular Data for May 24, 2017
Time Temperature Dew Point Pressure Wind Wind Speed Wind Gust Humidity Rainfall Rate (Hourly) solar Conditions
00:02 57.4 °F 51.6 °F 30.20 in WNW 4.0 mph 7.0 mph 81 % 0.00 in 0 W/m2
00:07 57.4 °F 51.6 °F 30.21 in WNW 4.0 mph 7.0 mph 81 % 0.00 in 0 W/m2
00:12 57.4 °F 51.9 °F 30.20 in WNW 2.0 mph 6.0 mph 82 % 0.00 in 0 W/m2
00:17 57.2 °F 51.8 °F 30.21 in WNW 1.0 mph 4.0 mph 82 % 0.00 in 0 W/m2
00:22 56.8 °F 51.4 °F 30.21 in Calm   2.0 mph 82 % 0.00 in 0 W/m2
00:27 56.8 °F 51.4 °F 30.21 in Calm   2.0 mph 82 % 0.00 in 0 W/m2
00:32 56.8 °F 52.1 °F 30.21 in WNW 2.0 mph 10.0 mph 84 % 0.00 in 0 W/m2
00:37 57.2 °F 52.7 °F 30.21 in WNW 4.0 mph 10.0 mph 85 % 0.00 in 0 W/m2
00:42 57.7 °F 53.3 °F 30.21 in WNW 6.0 mph 13.0 mph 85 % 0.00 in 0 W/m2
00:47 58.1 °F 53.3 °F 30.22 in WNW 7.0 mph 13.0 mph 84 % 0.00 in 0 W/m2
00:52 58.5 °F 53.6 °F 30.21 in WNW 7.0 mph 11.0 mph 84 % 0.00 in 0 W/m2
00:57 58.6 °F 53.5 °F 30.21 in WNW 5.0 mph 11.0 mph 83 % 0.00 in 0 W/m2
01:02 58.6 °F 53.5 °F 30.21 in WNW 4.0 mph 11.0 mph 83 % 0.00 in 0 W/m2
01:07 58.8 °F 53.7 °F 30.21 in WNW 5.0 mph 11.0 mph 83 % 0.00 in 0 W/m2
01:12 58.8 °F 53.7 °F 30.21 in WNW 5.0 mph 11.0 mph 83 % 0.00 in 0 W/m2
01:17 58.8 °F 53.7 °F 30.21 in WNW 5.0 mph 11.0 mph 83 % 0.00 in 0 W/m2
01:22 59.0 °F 53.8 °F 30.21 in WNW 4.0 mph 11.0 mph 83 % 0.00 in 0 W/m2
01:27 59.2 °F 54.0 °F 30.21 in WNW 3.0 mph 9.0 mph 83 % 0.00 in 0 W/m2
01:32 59.2 °F 54.0 °F 30.21 in West 3.0 mph 7.0 mph 83 % 0.00 in 0 W/m2
01:37 59.2 °F 54.0 °F 30.21 in West 2.0 mph 6.0 mph 83 % 0.00 in 0 W/m2
01:42 59.2 °F 54.0 °F 30.20 in WNW 3.0 mph 8.0 mph 83 % 0.00 in 0 W/m2
01:47 59.2 °F 54.0 °F 30.20 in WNW 5.0 mph 11.0 mph 83 % 0.00 in 0 W/m2
01:52 59.4 °F 54.2 °F 30.21 in WNW 6.0 mph 12.0 mph 83 % 0.00 in 0 W/m2
01:57 59.7 °F 54.5 °F 30.21 in WNW 9.0 mph 20.0 mph 83 % 0.00 in 0 W/m2
02:02 60.1 °F 54.6 °F 30.20 in WNW 9.0 mph 20.0 mph 82 % 0.00 in 0 W/m2
02:07 60.1 °F 54.6 °F 30.21 in WNW 7.0 mph 14.0 mph 82 % 0.00 in 0 W/m2
02:13 60.1 °F 54.2 °F 30.20 in WNW 8.0 mph 16.0 mph 81 % 0.00 in 0 W/m2
02:18 60.1 °F 54.2 °F 30.20 in WNW 9.0 mph 16.0 mph 81 % 0.00 in 0 W/m2
02:19 59.9 °F 54.1 °F 30.20 in WNW 9.0 mph 15.0 mph 81 % 0.00 in 0 W/m2
02:24 59.7 °F 53.9 °F 30.20 in WNW 8.0 mph 13.0 mph 81 % 0.00 in 0 W/m2
02:29 59.5 °F 54.0 °F 30.20 in WNW 7.0 mph 12.0 mph 82 % 0.00 in 0 W/m2
02:34 59.5 °F 54.0 °F 30.20 in WNW 8.0 mph 16.0 mph 82 % 0.00 in 0 W/m2
02:39 59.4 °F 53.9 °F 30.20 in WNW 9.0 mph 16.0 mph 82 % 0.00 in 0 W/m2
02:44 59.4 °F 53.9 °F 30.20 in West 9.0 mph 16.0 mph 82 % 0.00 in 0 W/m2
02:50 59.4 °F 53.9 °F 30.21 in West 10.0 mph 16.0 mph 82 % 0.00 in 0 W/m2
02:55 59.2 °F 53.7 °F 30.21 in WNW 10.0 mph 18.0 mph 82 % 0.00 in 0 W/m2
03:00 59.2 °F 53.7 °F 30.21 in West 9.0 mph 18.0 mph 82 % 0.00 in 0 W/m2
03:05 59.0 °F 53.8 °F 30.21 in West 8.0 mph 13.0 mph 83 % 0.00 in 0 W/m2
03:10 58.8 °F 53.7 °F 30.21 in West 7.0 mph 13.0 mph 83 % 0.00 in 0 W/m2
03:15 58.6 °F 53.5 °F 30.21 in West 7.0 mph 11.0 mph 83 % 0.00 in 0 W/m2
03:20 58.5 °F 53.6 °F 30.21 in WNW 7.0 mph 15.0 mph 84 % 0.00 in 0 W/m2
03:25 58.5 °F 53.6 °F 30.21 in WNW 8.0 mph 15.0 mph 84 % 0.00 in 0 W/m2
03:30 58.5 °F 53.6 °F 30.21 in WNW 8.0 mph 12.0 mph 84 % 0.00 in 0 W/m2
03:35 58.3 °F 53.5 °F 30.21 in WNW 7.0 mph 12.0 mph 84 % 0.00 in 0 W/m2
03:40 58.3 °F 53.5 °F 30.22 in WNW 5.0 mph 9.0 mph 84 % 0.00 in 0 W/m2
03:45 58.1 °F 53.6 °F 30.22 in West 5.0 mph 9.0 mph 85 % 0.00 in 0 W/m2
03:50 58.1 °F 53.6 °F 30.21 in West 6.0 mph 9.0 mph 85 % 0.00 in 0 W/m2
03:55 57.9 °F 53.4 °F 30.22 in West 6.0 mph 10.0 mph 85 % 0.00 in 0 W/m2
04:00 57.9 °F 53.8 °F 30.22 in WNW 6.0 mph 10.0 mph 86 % 0.00 in 0 W/m2
04:05 58.1 °F 53.9 °F 30.22 in WNW 5.0 mph 10.0 mph 86 % 0.00 in 0 W/m2
04:10 58.3 °F 54.1 °F 30.22 in WNW 6.0 mph 12.0 mph 86 % 0.00 in 0 W/m2
04:15 58.5 °F 54.6 °F 30.22 in WNW 7.0 mph 13.0 mph 87 % 0.00 in 0 W/m2
04:20 58.6 °F 54.5 °F 30.22 in WNW 7.0 mph 13.0 mph 86 % 0.00 in 0 W/m2
04:25 58.8 °F 54.6 °F 30.22 in WNW 7.0 mph 12.0 mph 86 % 0.00 in 0 W/m2
04:30 59.2 °F 55.0 °F 30.22 in WNW 8.0 mph 12.0 mph 86 % 0.00 in 0 W/m2
04:35 59.4 °F 55.2 °F 30.22 in West 8.0 mph 14.0 mph 86 % 0.00 in 0 W/m2
04:40 59.4 °F 54.8 °F 30.21 in West 9.0 mph 18.0 mph 85 % 0.00 in 0 W/m2
04:45 59.4 °F 54.8 °F 30.21 in West 9.0 mph 18.0 mph 85 % 0.00 in 0 W/m2
04:50 59.5 °F 55.0 °F 30.22 in West 8.0 mph 14.0 mph 85 % 0.00 in 5 W/m2
04:55 59.4 °F 54.8 °F 30.22 in West 7.0 mph 14.0 mph 85 % 0.00 in 5 W/m2
05:00 59.4 °F 54.8 °F 30.22 in West 6.0 mph 12.0 mph 85 % 0.00 in 7 W/m2
05:06 59.2 °F 54.7 °F 30.22 in West 7.0 mph 13.0 mph 85 % 0.00 in 9 W/m2
05:11 59.2 °F 54.7 °F 30.22 in West 7.0 mph 13.0 mph 85 % 0.00 in 11 W/m2
05:16 59.0 °F 54.8 °F 30.22 in West 6.0 mph 11.0 mph 86 % 0.00 in 14 W/m2
05:21 58.8 °F 54.6 °F 30.23 in WNW 6.0 mph 11.0 mph 86 % 0.00 in 16 W/m2
05:26 58.6 °F 54.5 °F 30.23 in WNW 6.0 mph 10.0 mph 86 % 0.00 in 19 W/m2
05:31 58.6 °F 54.8 °F 30.23 in WNW 6.0 mph 10.0 mph 87 % 0.00 in 25 W/m2
05:36 58.5 °F 54.6 °F 30.23 in WNW 5.0 mph 9.0 mph 87 % 0.00 in 28 W/m2
05:41 58.5 °F 54.6 °F 30.23 in WNW 4.0 mph 8.0 mph 87 % 0.00 in 32 W/m2
05:46 58.5 °F 54.6 °F 30.23 in WNW 3.0 mph 8.0 mph 87 % 0.00 in 37 W/m2
05:51 58.5 °F 54.6 °F 30.23 in WNW 3.0 mph 8.0 mph 87 % 0.00 in 44 W/m2
05:56 58.5 °F 54.6 °F 30.23 in West 3.0 mph 8.0 mph 87 % 0.00 in 44 W/m2
06:01 58.5 °F 54.6 °F 30.24 in West 2.0 mph 7.0 mph 87 % 0.00 in 56 W/m2
06:06 58.5 °F 54.6 °F 30.24 in WNW 2.0 mph 5.0 mph 87 % 0.00 in 67 W/m2
06:11 58.6 °F 55.1 °F 30.24 in WNW 1.0 mph 5.0 mph 88 % 0.00 in 76 W/m2
06:16 58.6 °F 55.1 °F 30.24 in Calm   5.0 mph 88 % 0.00 in 88 W/m2
06:21 58.8 °F 55.3 °F 30.24 in Calm   3.0 mph 88 % 0.00 in 77 W/m2
06:26 59.0 °F 55.4 °F 30.24 in WNW 2.0 mph 6.0 mph 88 % 0.00 in 100 W/m2
06:31 59.4 °F 55.5 °F 30.25 in WNW 3.0 mph 7.0 mph 87 % 0.00 in 97 W/m2
06:36 59.5 °F 55.7 °F 30.25 in WNW 4.0 mph 7.0 mph 87 % 0.00 in 84 W/m2
06:41 59.7 °F 55.8 °F 30.25 in WNW 4.0 mph 7.0 mph 87 % 0.00 in 74 W/m2
06:46 59.9 °F 56.0 °F 30.25 in WNW 3.0 mph 7.0 mph 87 % 0.00 in 67 W/m2
06:51 60.1 °F 55.9 °F 30.25 in WNW 2.0 mph 6.0 mph 86 % 0.00 in 74 W/m2
06:53 60.1 °F 55.9 °F 30.25 in West 2.0 mph 6.0 mph 86 % 0.00 in 67 W/m2
06:58 60.3 °F 56.1 °F 30.25 in West 2.0 mph 5.0 mph 86 % 0.00 in 109 W/m2
07:03 60.3 °F 56.1 °F 30.25 in West 3.0 mph 7.0 mph 86 % 0.00 in 95 W/m2
07:08 60.4 °F 56.2 °F 30.25 in West 4.0 mph 7.0 mph 86 % 0.00 in 86 W/m2
07:13 60.6 °F 56.4 °F 30.25 in West 5.0 mph 9.0 mph 86 % 0.00 in 84 W/m2
07:18 60.6 °F 56.4 °F 30.25 in West 5.0 mph 9.0 mph 86 % 0.00 in 98 W/m2
07:23 60.8 °F 56.6 °F 30.25 in West 4.0 mph 9.0 mph 86 % 0.00 in 121 W/m2
07:29 61.0 °F 56.8 °F 30.25 in WNW 5.0 mph 10.0 mph 86 % 0.00 in 146 W/m2
07:34 61.2 °F 56.6 °F 30.25 in WNW 7.0 mph 13.0 mph 85 % 0.00 in 120 W/m2
07:39 61.2 °F 56.6 °F 30.25 in WNW 7.0 mph 13.0 mph 85 % 0.00 in 120 W/m2
07:44 61.3 °F 56.8 °F 30.25 in WNW 5.0 mph 9.0 mph 85 % 0.00 in 179 W/m2
07:49 61.3 °F 56.8 °F 30.26 in West 4.0 mph 10.0 mph 85 % 0.00 in 185 W/m2
07:53 61.3 °F 56.8 °F 30.26 in West 5.0 mph 10.0 mph 85 % 0.00 in 178 W/m2
07:58 61.3 °F 56.8 °F 30.26 in West 6.0 mph 10.0 mph 85 % 0.00 in 144 W/m2
08:03 61.5 °F 57.0 °F 30.26 in West 6.0 mph 9.0 mph 85 % 0.00 in 174 W/m2
08:08 61.5 °F 57.0 °F 30.26 in West 6.0 mph 10.0 mph 85 % 0.00 in 132 W/m2
08:13 61.5 °F 57.0 °F 30.26 in WSW 5.0 mph 10.0 mph 85 % 0.00 in 183 W/m2
08:18 61.5 °F 57.0 °F 30.26 in West 5.0 mph 9.0 mph 85 % 0.00 in 149 W/m2
08:23 61.5 °F 57.0 °F 30.26 in West 6.0 mph 11.0 mph 85 % 0.00 in 135 W/m2
08:28 61.7 °F 57.1 °F 30.26 in West 6.0 mph 11.0 mph 85 % 0.00 in 121 W/m2
08:33 61.9 °F 57.0 °F 30.27 in West 4.0 mph 10.0 mph 84 % 0.00 in 93 W/m2
08:38 61.9 °F 57.0 °F 30.27 in West 1.0 mph 6.0 mph 84 % 0.00 in 90 W/m2
08:43 62.1 °F 57.2 °F 30.27 in WNW 2.0 mph 8.0 mph 84 % 0.00 in 153 W/m2
08:48 62.4 °F 57.5 °F 30.26 in WNW 5.0 mph 10.0 mph 84 % 0.00 in 320 W/m2
08:53 62.8 °F 57.9 °F 30.26 in WNW 7.0 mph 12.0 mph 84 % 0.00 in 230 W/m2
08:58 63.1 °F 57.9 °F 30.27 in WNW 6.0 mph 12.0 mph 83 % 0.00 in 207 W/m2
09:03 63.5 °F 57.9 °F 30.27 in NW 4.0 mph 11.0 mph 82 % 0.00 in 178 W/m2
09:08 63.7 °F 57.7 °F 30.27 in WNW 5.0 mph 12.0 mph 81 % 0.00 in 232 W/m2
09:13 63.9 °F 57.9 °F 30.27 in WNW 6.0 mph 12.0 mph 81 % 0.00 in 285 W/m2
09:18 64.0 °F 57.7 °F 30.27 in WNW 8.0 mph 13.0 mph 80 % 0.00 in 295 W/m2
09:23 64.2 °F 57.9 °F 30.27 in WNW 7.0 mph 13.0 mph 80 % 0.00 in 237 W/m2
09:28 64.6 °F 57.9 °F 30.27 in WNW 5.0 mph 11.0 mph 79 % 0.00 in 243 W/m2
09:33 64.9 °F 58.3 °F 30.27 in WNW 6.0 mph 12.0 mph 79 % 0.00 in 271 W/m2
09:38 65.1 °F 58.1 °F 30.27 in WNW 7.0 mph 13.0 mph 78 % 0.00 in 390 W/m2
09:43 65.7 °F 58.6 °F 30.27 in WNW 8.0 mph 13.0 mph 78 % 0.00 in 323 W/m2
09:48 66.0 °F 58.6 °F 30.27 in WNW 8.0 mph 13.0 mph 77 % 0.00 in 330 W/m2
09:49 66.0 °F 58.6 °F 30.27 in WNW 8.0 mph 14.0 mph 77 % 0.00 in 294 W/m2
09:54 66.2 °F 58.4 °F 30.27 in WNW 8.0 mph 15.0 mph 76 % 0.00 in 274 W/m2
09:59 66.4 °F 58.2 °F 30.27 in WNW 8.0 mph 15.0 mph 75 % 0.00 in 343 W/m2
10:04 66.4 °F 58.6 °F 30.27 in WNW 7.0 mph 14.0 mph 76 % 0.00 in 316 W/m2
10:09 66.6 °F 58.8 °F 30.27 in WNW 6.0 mph 12.0 mph 76 % 0.00 in 330 W/m2
10:14 66.9 °F 58.7 °F 30.27 in WNW 7.0 mph 13.0 mph 75 % 0.00 in 339 W/m2
10:19 66.7 °F 58.6 °F 30.27 in West 8.0 mph 15.0 mph 75 % 0.00 in 406 W/m2
10:24 66.9 °F 58.4 °F 30.27 in West 9.0 mph 15.0 mph 74 % 0.00 in 638 W/m2
10:29 67.6 °F 58.7 °F 30.27 in WNW 9.0 mph 18.0 mph 73 % 0.00 in 865 W/m2
10:34 68.2 °F 58.8 °F 30.27 in WNW 10.0 mph 18.0 mph 72 % 0.00 in 814 W/m2
10:39 68.4 °F 58.6 °F 30.27 in WNW 10.0 mph 18.0 mph 71 % 0.00 in 439 W/m2
10:44 68.7 °F 58.9 °F 30.28 in WNW 9.0 mph 15.0 mph 71 % 0.00 in 466 W/m2
10:49 68.5 °F 58.8 °F 30.28 in WNW 8.0 mph 14.0 mph 71 % 0.00 in 918 W/m2
10:54 68.9 °F 58.7 °F 30.28 in WNW 8.0 mph 15.0 mph 70 % 0.00 in 534 W/m2
10:59 69.1 °F 58.9 °F 30.28 in WNW 8.0 mph 15.0 mph 70 % 0.00 in 299 W/m2
11:04 69.1 °F 58.9 °F 30.28 in NW 7.0 mph 13.0 mph 70 % 0.00 in 418 W/m2
11:09 69.3 °F 59.1 °F 30.28 in NW 7.0 mph 12.0 mph 70 % 0.00 in 343 W/m2
11:14 69.4 °F 59.2 °F 30.28 in NW 6.0 mph 11.0 mph 70 % 0.00 in 369 W/m2
11:19 69.4 °F 59.2 °F 30.28 in WNW 7.0 mph 14.0 mph 70 % 0.00 in 346 W/m2
11:24 69.3 °F 59.1 °F 30.28 in WNW 9.0 mph 16.0 mph 70 % 0.00 in 976 W/m2
11:29 70.0 °F 59.7 °F 30.28 in WNW 8.0 mph 16.0 mph 70 % 0.00 in 357 W/m2
11:34 70.5 °F 59.4 °F 30.28 in WNW 7.0 mph 12.0 mph 68 % 0.00 in 962 W/m2
11:39 70.9 °F 59.8 °F 30.28 in WNW 7.0 mph 13.0 mph 68 % 0.00 in 478 W/m2
11:44 71.2 °F 60.1 °F 30.28 in WNW 7.0 mph 13.0 mph 68 % 0.00 in 1023 W/m2
11:49 71.2 °F 59.3 °F 30.28 in NW 8.0 mph 14.0 mph 66 % 0.00 in 327 W/m2
11:54 71.1 °F 59.1 °F 30.28 in NW 9.0 mph 15.0 mph 66 % 0.00 in 399 W/m2
11:59 70.9 °F 59.4 °F 30.28 in NW 7.0 mph 15.0 mph 67 % 0.00 in 522 W/m2
12:04 70.7 °F 59.2 °F 30.28 in WNW 7.0 mph 13.0 mph 67 % 0.00 in 330 W/m2
12:09 70.7 °F 59.2 °F 30.27 in WNW 8.0 mph 15.0 mph 67 % 0.00 in 1130 W/m2
12:14 71.1 °F 59.5 °F 30.27 in West 9.0 mph 21.0 mph 67 % 0.00 in 939 W/m2
12:19 71.4 °F 59.5 °F 30.27 in West 11.0 mph 21.0 mph 66 % 0.00 in 947 W/m2
12:24 72.0 °F 60.0 °F 30.27 in WNW 10.0 mph 15.0 mph 66 % 0.00 in 334 W/m2
12:28 72.0 °F 59.6 °F 30.27 in WNW 9.0 mph 18.0 mph 65 % 0.00 in 371 W/m2
12:33 72.0 °F 60.0 °F 30.27 in WNW 10.0 mph 18.0 mph 66 % 0.00 in 385 W/m2
12:38 72.0 °F 59.6 °F 30.27 in WNW 10.0 mph 18.0 mph 65 % 0.00 in 425 W/m2
12:43 72.0 °F 60.0 °F 30.27 in WNW 10.0 mph 16.0 mph 66 % 0.00 in 301 W/m2
12:48 72.0 °F 60.0 °F 30.27 in WNW 9.0 mph 16.0 mph 66 % 0.00 in 299 W/m2
12:53 71.8 °F 59.4 °F 30.27 in NW 8.0 mph 19.0 mph 65 % 0.00 in 274 W/m2
12:58 71.8 °F 59.8 °F 30.27 in WNW 10.0 mph 19.0 mph 66 % 0.00 in 295 W/m2
13:03 71.8 °F 59.8 °F 30.27 in West 11.0 mph 18.0 mph 66 % 0.00 in 448 W/m2
13:08 71.8 °F 59.8 °F 30.27 in West 11.0 mph 20.0 mph 66 % 0.00 in 448 W/m2
13:13 71.8 °F 59.8 °F 30.27 in West 11.0 mph 20.0 mph 66 % 0.00 in 816 W/m2
13:18 72.0 °F 60.0 °F 30.27 in West 11.0 mph 19.0 mph 66 % 0.00 in 816 W/m2
13:23 72.1 °F 59.7 °F 30.27 in West 11.0 mph 19.0 mph 65 % 0.00 in 483 W/m2
13:28 72.7 °F 60.2 °F 30.27 in WNW 10.0 mph 19.0 mph 65 % 0.00 in 392 W/m2
13:33 72.7 °F 59.4 °F 30.27 in WNW 10.0 mph 18.0 mph 63 % 0.00 in 267 W/m2
13:38 72.1 °F 59.7 °F 30.27 in NW 10.0 mph 18.0 mph 65 % 0.00 in 1018 W/m2
13:43 72.3 °F 59.5 °F 30.27 in WNW 10.0 mph 18.0 mph 64 % 0.00 in 227 W/m2
13:48 72.3 °F 59.5 °F 30.27 in WNW 10.0 mph 16.0 mph 64 % 0.00 in 923 W/m2
13:53 72.5 °F 59.6 °F 30.27 in WNW 10.0 mph 15.0 mph 64 % 0.00 in 944 W/m2
13:58 72.9 °F 60.4 °F 30.27 in WNW 10.0 mph 15.0 mph 65 % 0.00 in 1016 W/m2
14:03 73.2 °F 59.9 °F 30.27 in WNW 9.0 mph 16.0 mph 63 % 0.00 in 925 W/m2
14:08 73.4 °F 59.6 °F 30.27 in WNW 10.0 mph 20.0 mph 62 % 0.00 in 909 W/m2
14:13 73.2 °F 59.4 °F 30.27 in WNW 11.0 mph 20.0 mph 62 % 0.00 in 830 W/m2
14:18 73.4 °F 59.6 °F 30.27 in WNW 11.0 mph 19.0 mph 62 % 0.00 in 805 W/m2
14:23 73.8 °F 60.4 °F 30.27 in WNW 9.0 mph 18.0 mph 63 % 0.00 in 847 W/m2
14:29 73.9 °F 59.6 °F 30.27 in WNW 8.0 mph 14.0 mph 61 % 0.00 in 835 W/m2
14:34 74.5 °F 60.1 °F 30.27 in WNW 9.0 mph 15.0 mph 61 % 0.00 in 824 W/m2
14:39 74.7 °F 59.9 °F 30.27 in WNW 10.0 mph 18.0 mph 60 % 0.00 in 807 W/m2
14:44 74.7 °F 59.9 °F 30.27 in West 10.0 mph 18.0 mph 60 % 0.00 in 824 W/m2
14:49 75.0 °F 60.2 °F 30.27 in WNW 9.0 mph 14.0 mph 60 % 0.00 in 823 W/m2
14:54 75.2 °F 59.9 °F 30.27 in WNW 8.0 mph 15.0 mph 59 % 0.00 in 814 W/m2
14:59 75.2 °F 59.9 °F 30.26 in WNW 9.0 mph 18.0 mph 59 % 0.00 in 805 W/m2
15:04 75.4 °F 59.6 °F 30.26 in WNW 9.0 mph 18.0 mph 58 % 0.00 in 802 W/m2
15:09 75.4 °F 60.1 °F 30.26 in WNW 9.0 mph 16.0 mph 59 % 0.00 in 795 W/m2
15:14 75.6 °F 60.2 °F 30.26 in WNW 9.0 mph 15.0 mph 59 % 0.00 in 162 W/m2
15:19 75.4 °F 60.5 °F 30.26 in WNW 9.0 mph 14.0 mph 60 % 0.00 in 831 W/m2
15:24 74.8 °F 60.5 °F 30.26 in WNW 8.0 mph 14.0 mph 61 % 0.00 in 824 W/m2
15:25 74.8 °F 60.5 °F 30.26 in WNW 8.0 mph 14.0 mph 61 % 0.00 in 833 W/m2
15:30 74.8 °F 60.5 °F 30.26 in WNW 8.0 mph 16.0 mph 61 % 0.00 in 745 W/m2
15:35 74.8 °F 60.5 °F 30.26 in WNW 8.0 mph 16.0 mph 61 % 0.00 in 759 W/m2
15:36 74.8 °F 60.5 °F 30.26 in WNW 8.0 mph 16.0 mph 61 % 0.00 in 759 W/m2
15:41 74.8 °F 60.5 °F 30.26 in WNW 8.0 mph 16.0 mph 61 % 0.00 in 747 W/m2
15:46 75.0 °F 60.2 °F 30.26 in WNW 9.0 mph 16.0 mph 60 % 0.00 in 664 W/m2
15:51 75.2 °F 60.8 °F 30.26 in WNW 9.0 mph 15.0 mph 61 % 0.00 in 719 W/m2
15:56 75.6 °F 61.2 °F 30.26 in WNW 8.0 mph 16.0 mph 61 % 0.00 in 696 W/m2
16:01 75.7 °F 60.4 °F 30.26 in WNW 8.0 mph 16.0 mph 59 % 0.00 in 693 W/m2
16:06 75.6 °F 59.7 °F 30.26 in WNW 8.0 mph 19.0 mph 58 % 0.00 in 698 W/m2
16:11 75.6 °F 60.2 °F 30.26 in WNW 9.0 mph 19.0 mph 59 % 0.00 in 675 W/m2
16:16 75.6 °F 59.7 °F 30.26 in NW 10.0 mph 15.0 mph 58 % 0.00 in 664 W/m2
16:21 75.6 °F 60.2 °F 30.26 in NW 10.0 mph 15.0 mph 59 % 0.00 in 650 W/m2
16:26 75.6 °F 59.7 °F 30.26 in WNW 9.0 mph 14.0 mph 58 % 0.00 in 635 W/m2
16:31 75.7 °F 59.9 °F 30.25 in NW 9.0 mph 15.0 mph 58 % 0.00 in 635 W/m2
16:36 75.7 °F 59.9 °F 30.26 in NW 9.0 mph 16.0 mph 58 % 0.00 in 601 W/m2
16:41 75.7 °F 59.9 °F 30.26 in NW 9.0 mph 16.0 mph 58 % 0.00 in 594 W/m2
16:46 75.7 °F 59.9 °F 30.25 in NW 9.0 mph 14.0 mph 58 % 0.00 in 599 W/m2
16:51 75.7 °F 60.4 °F 30.25 in WNW 9.0 mph 14.0 mph 59 % 0.00 in 557 W/m2
16:56 75.7 °F 60.4 °F 30.26 in WNW 8.0 mph 13.0 mph 59 % 0.00 in 162 W/m2
17:01 75.4 °F 60.1 °F 30.25 in WNW 7.0 mph 14.0 mph 59 % 0.00 in 151 W/m2
17:06 75.0 °F 60.2 °F 30.25 in WNW 7.0 mph 14.0 mph 60 % 0.00 in 541 W/m2
17:11 75.0 °F 60.2 °F 30.25 in WNW 7.0 mph 13.0 mph 60 % 0.00 in 527 W/m2
17:16 75.4 °F 60.5 °F 30.25 in WNW 7.0 mph 13.0 mph 60 % 0.00 in 547 W/m2
17:21 75.6 °F 60.2 °F 30.25 in NW 7.0 mph 13.0 mph 59 % 0.00 in 512 W/m2
17:24 75.6 °F 60.7 °F 30.25 in NW 7.0 mph 11.0 mph 60 % 0.00 in 142 W/m2
17:29 75.4 °F 60.1 °F 30.25 in NW 6.0 mph 13.0 mph 59 % 0.00 in 466 W/m2
17:34 74.7 °F 60.3 °F 30.25 in NW 6.0 mph 13.0 mph 61 % 0.00 in 134 W/m2
17:39 74.5 °F 60.6 °F 30.25 in NW 6.0 mph 12.0 mph 62 % 0.00 in 462 W/m2
17:44 74.3 °F 60.4 °F 30.25 in NW 7.0 mph 13.0 mph 62 % 0.00 in 429 W/m2
17:49 74.5 °F 60.1 °F 30.25 in NW 7.0 mph 13.0 mph 61 % 0.00 in 425 W/m2
17:54 74.7 °F 60.3 °F 30.25 in NW 7.0 mph 15.0 mph 61 % 0.00 in 406 W/m2
17:59 74.7 °F 59.4 °F 30.25 in West 9.0 mph 15.0 mph 59 % 0.00 in 397 W/m2
18:04 74.5 °F 59.2 °F 30.25 in West 9.0 mph 15.0 mph 59 % 0.00 in 353 W/m2
18:09 74.5 °F 59.2 °F 30.25 in WNW 9.0 mph 15.0 mph 59 % 0.00 in 383 W/m2
18:14 74.5 °F 59.7 °F 30.25 in WNW 9.0 mph 15.0 mph 60 % 0.00 in 374 W/m2
18:19 74.5 °F 59.7 °F 30.25 in WNW 8.0 mph 13.0 mph 60 % 0.00 in 302 W/m2
18:24 74.3 °F 59.5 °F 30.25 in WNW 8.0 mph 14.0 mph 60 % 0.00 in 258 W/m2
18:25 74.3 °F 59.5 °F 30.25 in WNW 8.0 mph 14.0 mph 60 % 0.00 in 123 W/m2
18:30 73.8 °F 59.5 °F 30.25 in WNW 8.0 mph 14.0 mph 61 % 0.00 in 162 W/m2
18:36 73.8 °F 59.9 °F 30.25 in WNW 7.0 mph 12.0 mph 62 % 0.00 in 318 W/m2
18:41 73.8 °F 59.9 °F 30.25 in WNW 5.0 mph 11.0 mph 62 % 0.00 in 151 W/m2
18:46 73.8 °F 59.9 °F 30.25 in WNW 5.0 mph 10.0 mph 62 % 0.00 in 260 W/m2
18:51 73.6 °F 59.8 °F 30.25 in WNW 6.0 mph 11.0 mph 62 % 0.00 in 265 W/m2
18:56 73.6 °F 59.8 °F 30.25 in WNW 7.0 mph 11.0 mph 62 % 0.00 in 255 W/m2
19:01 73.4 °F 60.0 °F 30.25 in WNW 6.0 mph 11.0 mph 63 % 0.00 in 237 W/m2
19:06 73.4 °F 60.0 °F 30.25 in WNW 5.0 mph 10.0 mph 63 % 0.00 in 220 W/m2
19:11 73.6 °F 60.2 °F 30.25 in WNW 5.0 mph 10.0 mph 63 % 0.00 in 202 W/m2
19:16 73.4 °F 60.0 °F 30.25 in WNW 6.0 mph 10.0 mph 63 % 0.00 in 192 W/m2
19:21 73.2 °F 59.9 °F 30.25 in WNW 7.0 mph 11.0 mph 63 % 0.00 in 174 W/m2
19:26 73.0 °F 59.7 °F 30.25 in NW 7.0 mph 12.0 mph 63 % 0.00 in 162 W/m2
19:31 73.0 °F 59.7 °F 30.25 in NW 6.0 mph 12.0 mph 63 % 0.00 in 155 W/m2
19:36 72.9 °F 60.0 °F 30.25 in NW 5.0 mph 10.0 mph 64 % 0.00 in 142 W/m2
19:41 72.9 °F 60.0 °F 30.25 in NW 5.0 mph 10.0 mph 64 % 0.00 in 130 W/m2
19:46 72.7 °F 60.2 °F 30.25 in NW 4.0 mph 8.0 mph 65 % 0.00 in 118 W/m2
19:51 72.7 °F 60.2 °F 30.25 in NW 4.0 mph 7.0 mph 65 % 0.00 in 77 W/m2
19:56 72.5 °F 60.1 °F 30.25 in NW 4.0 mph 9.0 mph 65 % 0.00 in 42 W/m2
20:01 72.0 °F 60.0 °F 30.25 in NW 4.0 mph 9.0 mph 66 % 0.00 in 37 W/m2
20:06 71.6 °F 60.1 °F 30.25 in NW 4.0 mph 8.0 mph 67 % 0.00 in 33 W/m2
20:11 71.1 °F 60.0 °F 30.25 in NW 4.0 mph 8.0 mph 68 % 0.00 in 32 W/m2
20:16 70.5 °F 59.9 °F 30.25 in NW 5.0 mph 9.0 mph 69 % 0.00 in 30 W/m2
20:21 70.2 °F 59.5 °F 30.25 in NW 5.0 mph 9.0 mph 69 % 0.00 in 26 W/m2
20:26 69.6 °F 59.4 °F 30.25 in NW 4.0 mph 10.0 mph 70 % 0.00 in 25 W/m2
20:27 69.6 °F 59.4 °F 30.25 in NW 4.0 mph 10.0 mph 70 % 0.00 in 25 W/m2
20:32 69.3 °F 59.5 °F 30.25 in NW 4.0 mph 10.0 mph 71 % 0.00 in 23 W/m2
20:37 68.9 °F 59.5 °F 30.25 in NW 4.0 mph 7.0 mph 72 % 0.00 in 21 W/m2
20:42 68.5 °F 59.2 °F 30.25 in NW 4.0 mph 7.0 mph 72 % 0.00 in 18 W/m2
20:47 68.2 °F 59.2 °F 30.25 in WNW 3.0 mph 7.0 mph 73 % 0.00 in 16 W/m2
20:52 67.8 °F 59.2 °F 30.25 in NW 3.0 mph 7.0 mph 74 % 0.00 in 14 W/m2
20:57 67.6 °F 59.1 °F 30.25 in NW 3.0 mph 7.0 mph 74 % 0.00 in 12 W/m2
21:02 67.1 °F 58.9 °F 30.25 in NW 4.0 mph 8.0 mph 75 % 0.00 in 9 W/m2
21:07 66.7 °F 58.9 °F 30.26 in NW 5.0 mph 9.0 mph 76 % 0.00 in 7 W/m2
21:13 66.4 °F 58.6 °F 30.26 in NW 5.0 mph 9.0 mph 76 % 0.00 in 5 W/m2
21:18 66.0 °F 58.6 °F 30.26 in NW 5.0 mph 8.0 mph 77 % 0.00 in 5 W/m2
21:23 65.8 °F 58.8 °F 30.26 in NW 4.0 mph 7.0 mph 78 % 0.00 in 0 W/m2
21:28 65.5 °F 58.4 °F 30.26 in NW 3.0 mph 6.0 mph 78 % 0.00 in 0 W/m2
21:33 65.3 °F 58.6 °F 30.26 in NW 3.0 mph 8.0 mph 79 % 0.00 in 0 W/m2
21:38 64.9 °F 58.3 °F 30.26 in NW 4.0 mph 8.0 mph 79 % 0.00 in 0 W/m2
21:43 64.8 °F 58.4 °F 30.26 in NW 4.0 mph 8.0 mph 80 % 0.00 in 0 W/m2
21:48 64.4 °F 58.1 °F 30.26 in NW 4.0 mph 8.0 mph 80 % 0.00 in 0 W/m2
21:53 64.0 °F 58.1 °F 30.26 in NW 4.0 mph 7.0 mph 81 % 0.00 in 0 W/m2
21:58 63.9 °F 57.9 °F 30.26 in WNW 2.0 mph 7.0 mph 81 % 0.00 in 0 W/m2
22:03 63.7 °F 57.7 °F 30.27 in WNW 1.0 mph 4.0 mph 81 % 0.00 in 0 W/m2
22:08 63.5 °F 57.9 °F 30.27 in WNW 1.0 mph 5.0 mph 82 % 0.00 in 0 W/m2
22:13 63.3 °F 57.7 °F 30.27 in NW 1.0 mph 5.0 mph 82 % 0.00 in 0 W/m2
22:18 63.1 °F 57.6 °F 30.27 in NW 1.0 mph 5.0 mph 82 % 0.00 in 0 W/m2
22:23 63.0 °F 57.7 °F 30.27 in WNW 1.0 mph 5.0 mph 83 % 0.00 in 0 W/m2
22:28 62.8 °F 57.5 °F 30.26 in West 3.0 mph 7.0 mph 83 % 0.00 in 0 W/m2
22:33 62.4 °F 57.2 °F 30.26 in West 3.0 mph 7.0 mph 83 % 0.00 in 0 W/m2
22:38 62.2 °F 57.3 °F 30.26 in West 3.0 mph 7.0 mph 84 % 0.00 in 0 W/m2
22:43 62.1 °F 57.2 °F 30.26 in West 3.0 mph 6.0 mph 84 % 0.00 in 0 W/m2
22:48 61.9 °F 57.0 °F 30.26 in West 2.0 mph 6.0 mph 84 % 0.00 in 0 W/m2
22:53 61.5 °F 56.6 °F 30.27 in West 1.0 mph 5.0 mph 84 % 0.00 in 0 W/m2
22:58 61.2 °F 56.6 °F 30.26 in West 1.0 mph 5.0 mph 85 % 0.00 in 0 W/m2
23:03 61.0 °F 56.4 °F 30.27 in Calm   5.0 mph 85 % 0.00 in 0 W/m2
23:13 60.3 °F 56.1 °F 30.27 in Calm   2.0 mph 86 % 0.00 in 0 W/m2
23:18 60.1 °F 56.2 °F 30.27 in Calm   3.0 mph 87 % 0.00 in 0 W/m2
23:23 59.9 °F 56.0 °F 30.27 in West 1.0 mph 3.0 mph 87 % 0.00 in 0 W/m2
23:29 59.7 °F 56.2 °F 30.27 in West 1.0 mph 3.0 mph 88 % 0.00 in 0 W/m2
23:34 59.5 °F 56.0 °F 30.27 in West 1.0 mph 3.0 mph 88 % 0.00 in 0 W/m2
23:39 59.4 °F 55.8 °F 30.27 in Calm   1.0 mph 88 % 0.00 in 0 W/m2
23:44 59.2 °F 55.6 °F 30.27 in West 1.0 mph 4.0 mph 88 % 0.00 in 0 W/m2
23:49 59.0 °F 55.8 °F 30.26 in West 2.0 mph 5.0 mph 89 % 0.00 in 0 W/m2
23:54 58.8 °F 55.6 °F 30.26 in West 3.0 mph 6.0 mph 89 % 0.00 in 0 W/m2
23:59 58.6 °F 55.4 °F 30.26 in WNW 4.0 mph 6.0 mph 89 % 0.00 in 0 W/m2
Delerius-Weather
Compliments of Weather Underground - 2.25 mb

Data updates at regular intervals.